createdAt,value
2019-01-10T00:00:03.235Z,99.99
2019-01-10T00:01:12.911Z,99.99
2019-01-10T00:02:22.343Z,99.99
2019-01-10T00:03:32.282Z,99.99
2019-01-10T00:04:41.972Z,99.99
2019-01-10T00:05:51.922Z,99.99
2019-01-10T00:07:01.852Z,99.99
2019-01-10T00:08:11.797Z,99.99
2019-01-10T00:09:20.968Z,99.99
2019-01-10T00:10:31.107Z,99.99
2019-01-10T00:11:41.032Z,99.99
2019-01-10T00:12:50.729Z,99.99
2019-01-10T00:14:00.662Z,99.99
2019-01-10T00:15:10.355Z,99.99
2019-01-10T00:16:20.057Z,99.99
2019-01-10T00:17:29.544Z,99.99
2019-01-10T00:18:39.492Z,99.99
2019-01-10T00:19:49.434Z,99.99
2019-01-10T00:20:59.374Z,99.99
2019-01-10T00:22:09.325Z,99.99
2019-01-10T00:23:19.010Z,99.99
2019-01-10T00:24:28.448Z,99.99
2019-01-10T00:25:38.135Z,99.99
2019-01-10T00:26:47.830Z,99.99
2019-01-10T00:27:57.556Z,99.99
2019-01-10T00:29:07.486Z,99.99
2019-01-10T00:30:17.180Z,99.99
2019-01-10T00:31:27.107Z,99.99
2019-01-10T00:32:37.049Z,99.99
2019-01-10T00:33:47.020Z,99.99
2019-01-10T00:34:56.460Z,99.99
2019-01-10T00:36:06.134Z,99.99
2019-01-10T00:37:16.127Z,99.99
2019-01-10T00:38:26.076Z,99.99
2019-01-10T00:39:36.032Z,99.99
2019-01-10T00:40:47.200Z,99.99
2019-01-10T00:41:57.164Z,99.99
2019-01-10T00:43:07.109Z,99.99
2019-01-10T00:44:17.040Z,99.99
2019-01-10T00:45:26.980Z,99.99
2019-01-10T00:46:37.010Z,99.99
2019-01-10T00:47:46.938Z,99.99
2019-01-10T00:48:56.638Z,99.99
2019-01-10T00:50:06.587Z,99.99
2019-01-10T00:51:16.374Z,99.99
2019-01-10T00:52:26.310Z,99.99
2019-01-10T00:53:36.246Z,99.99
2019-01-10T00:54:46.180Z,99.99
2019-01-10T00:55:56.122Z,99.99
2019-01-10T00:57:06.048Z,99.99
2019-01-10T00:58:16.000Z,99.99
2019-01-10T00:59:25.940Z,99.99
2019-01-10T01:00:35.642Z,99.99
2019-01-10T01:01:45.581Z,99.99
2019-01-10T01:02:55.625Z,99.99
2019-01-10T01:04:05.559Z,99.99
2019-01-10T01:05:15.507Z,99.99
2019-01-10T01:06:25.455Z,99.99
2019-01-10T01:07:35.393Z,99.99
2019-01-10T01:08:45.415Z,99.99
2019-01-10T01:09:55.123Z,99.99
2019-01-10T01:11:05.066Z,99.99
2019-01-10T01:12:15.003Z,99.99
2019-01-10T01:13:24.950Z,99.99
2019-01-10T01:14:34.639Z,99.99
2019-01-10T01:15:44.580Z,99.99
2019-01-10T01:16:54.363Z,99.99
2019-01-10T01:18:04.052Z,99.99
2019-01-10T01:19:13.486Z,99.99
2019-01-10T01:20:23.513Z,99.99
2019-01-10T01:21:33.305Z,99.99
2019-01-10T01:22:43.238Z,99.99
2019-01-10T01:23:52.938Z,99.99
2019-01-10T01:25:02.634Z,99.99
2019-01-10T01:26:12.565Z,99.99
2019-01-10T01:27:22.272Z,99.99
2019-01-10T01:28:31.966Z,99.99
2019-01-10T01:29:41.902Z,99.99
2019-01-10T01:30:51.841Z,99.99
2019-01-10T01:32:01.792Z,99.99
2019-01-10T01:33:11.476Z,99.99
2019-01-10T01:34:21.403Z,99.99
2019-01-10T01:35:31.097Z,99.99
2019-01-10T01:36:41.114Z,99.99
2019-01-10T01:37:51.047Z,99.99
2019-01-10T01:39:00.988Z,99.99
2019-01-10T01:40:10.700Z,99.99
2019-01-10T01:41:20.396Z,99.99
2019-01-10T01:42:30.331Z,99.99
2019-01-10T01:43:40.270Z,99.99
2019-01-10T01:44:49.966Z,99.99
2019-01-10T01:45:59.973Z,99.99
2019-01-10T01:47:10.730Z,99.99
2019-01-10T01:48:20.479Z,99.99
2019-01-10T01:49:30.176Z,99.99
2019-01-10T01:50:39.874Z,99.99
2019-01-10T01:51:49.806Z,99.99
2019-01-10T01:52:59.745Z,99.99
2019-01-10T01:54:09.670Z,99.99
2019-01-10T01:55:19.617Z,99.99
2019-01-10T01:56:29.566Z,99.99
2019-01-10T01:57:39.247Z,99.99
2019-01-10T01:58:48.943Z,99.99
2019-01-10T01:59:58.620Z,99.99
2019-01-10T02:01:08.421Z,99.99
2019-01-10T02:02:17.884Z,99.99
2019-01-10T02:03:27.831Z,99.99
2019-01-10T02:04:37.539Z,99.99
2019-01-10T02:05:47.473Z,99.99
2019-01-10T02:06:57.176Z,99.99
2019-01-10T02:08:07.107Z,99.99
2019-01-10T02:09:16.633Z,99.99
2019-01-10T02:10:26.069Z,99.99
2019-01-10T02:11:36.016Z,99.99
2019-01-10T02:12:45.709Z,99.99
2019-01-10T02:13:55.155Z,99.99
2019-01-10T02:15:05.094Z,99.99
2019-01-10T02:16:17.064Z,99.99
2019-01-10T02:17:27.009Z,99.99
2019-01-10T02:18:36.689Z,99.99
2019-01-10T02:19:46.374Z,99.99
2019-01-10T02:20:56.311Z,99.99
2019-01-10T02:22:06.248Z,99.99
2019-01-10T02:23:16.173Z,99.99
2019-01-10T02:24:26.103Z,99.99
2019-01-10T02:25:35.788Z,99.99
2019-01-10T02:26:45.730Z,99.99
2019-01-10T02:27:55.662Z,99.99
2019-01-10T02:29:05.362Z,99.99
2019-01-10T02:30:15.060Z,99.99
2019-01-10T02:31:25.032Z,99.99
2019-01-10T02:32:34.746Z,99.99
2019-01-10T02:33:44.676Z,99.99
2019-01-10T02:34:54.359Z,99.99
2019-01-10T02:36:04.311Z,99.99
2019-01-10T02:37:14.362Z,99.99
2019-01-10T02:38:24.333Z,99.99
2019-01-10T02:39:34.016Z,99.99
2019-01-10T02:40:43.702Z,99.99
2019-01-10T02:41:53.633Z,99.99
2019-01-10T02:43:03.591Z,99.99
2019-01-10T02:44:13.531Z,99.99
2019-01-10T02:45:23.481Z,99.99
2019-01-10T02:46:33.431Z,99.99
2019-01-10T02:47:43.367Z,99.99
2019-01-10T02:48:52.828Z,99.99
2019-01-10T02:50:02.778Z,99.99
2019-01-10T02:51:12.727Z,99.99
2019-01-10T02:52:22.667Z,99.99
2019-01-10T02:53:32.653Z,99.99
2019-01-10T02:54:42.593Z,99.99
2019-01-10T02:55:52.282Z,99.99
2019-01-10T02:57:01.980Z,99.99
2019-01-10T02:58:11.670Z,99.99
2019-01-10T02:59:21.659Z,99.99
2019-01-10T03:00:33.915Z,99.99
2019-01-10T03:01:43.616Z,99.99
2019-01-10T03:02:53.072Z,99.99
2019-01-10T03:04:03.093Z,99.99
2019-01-10T03:05:13.031Z,99.99
2019-01-10T03:06:22.964Z,99.99
2019-01-10T03:07:32.663Z,99.99
2019-01-10T03:08:42.349Z,99.99
2019-01-10T03:09:52.418Z,99.99
2019-01-10T03:11:01.354Z,99.99
2019-01-10T03:12:11.062Z,99.99
2019-01-10T03:13:20.492Z,99.99
2019-01-10T03:14:39.243Z,99.99
2019-01-10T03:15:48.684Z,99.99
2019-01-10T03:16:58.233Z,99.99
2019-01-10T03:18:08.190Z,99.99
2019-01-10T03:19:18.133Z,99.99
2019-01-10T03:20:27.820Z,99.99
2019-01-10T03:21:37.767Z,99.99
2019-01-10T03:22:47.465Z,99.99
2019-01-10T03:23:57.162Z,99.99
2019-01-10T03:25:06.890Z,99.99
2019-01-10T03:26:16.581Z,99.99
2019-01-10T03:27:26.522Z,99.99
2019-01-10T03:28:36.456Z,99.99
2019-01-10T03:29:46.421Z,99.99
2019-01-10T03:30:56.377Z,99.99
2019-01-10T03:32:06.127Z,99.99
2019-01-10T03:33:15.890Z,99.99
2019-01-10T03:34:25.861Z,99.99
2019-01-10T03:35:35.557Z,99.99
2019-01-10T03:36:45.524Z,99.99
2019-01-10T03:37:55.472Z,99.99
2019-01-10T03:39:05.399Z,99.99
2019-01-10T03:40:15.339Z,99.99
2019-01-10T03:41:25.294Z,99.99
2019-01-10T03:42:35.232Z,99.99
2019-01-10T03:43:50.020Z,99.99
2019-01-10T03:44:59.965Z,99.99
2019-01-10T03:46:09.911Z,99.99
2019-01-10T03:47:19.629Z,99.99
2019-01-10T03:48:29.571Z,99.99
2019-01-10T03:49:39.509Z,99.99
2019-01-10T03:50:49.463Z,99.99
2019-01-10T03:51:59.151Z,99.99
2019-01-10T03:53:08.849Z,99.99
2019-01-10T03:54:18.537Z,99.99
2019-01-10T03:55:28.487Z,99.99
2019-01-10T03:56:38.424Z,99.99
2019-01-10T03:57:48.377Z,99.99
2019-01-10T03:58:58.075Z,99.99
2019-01-10T04:00:08.018Z,99.99
2019-01-10T04:01:17.974Z,99.99
2019-01-10T04:02:27.687Z,99.99
2019-01-10T04:03:37.635Z,99.99
2019-01-10T04:04:47.579Z,99.99
2019-01-10T04:05:57.508Z,99.99
2019-01-10T04:07:07.467Z,99.99
2019-01-10T04:08:17.164Z,99.99
2019-01-10T04:09:26.839Z,99.99
2019-01-10T04:10:36.804Z,99.99
2019-01-10T04:11:46.743Z,99.99
2019-01-10T04:12:56.803Z,99.99
2019-01-10T04:14:06.251Z,99.99
2019-01-10T04:15:15.956Z,99.99
2019-01-10T04:16:25.646Z,99.99
2019-01-10T04:17:35.605Z,99.99
2019-01-10T04:18:45.566Z,99.99
2019-01-10T04:19:57.483Z,99.99
2019-01-10T04:21:16.635Z,99.99
2019-01-10T04:22:26.859Z,99.99
2019-01-10T04:23:36.542Z,99.99
2019-01-10T04:24:46.483Z,99.99
2019-01-10T04:25:56.178Z,99.99
2019-01-10T04:27:05.881Z,99.99
2019-01-10T04:28:15.574Z,99.99
2019-01-10T04:29:25.562Z,99.99
2019-01-10T04:30:35.528Z,99.99
2019-01-10T04:31:45.451Z,99.99
2019-01-10T04:32:55.398Z,99.99
2019-01-10T04:34:05.089Z,99.99
2019-01-10T04:35:15.029Z,99.99
2019-01-10T04:36:24.966Z,99.99
2019-01-10T04:37:35.543Z,99.99
2019-01-10T04:38:45.486Z,99.99
2019-01-10T04:39:55.166Z,99.99
2019-01-10T04:41:05.121Z,99.99
2019-01-10T04:42:15.080Z,99.99
2019-01-10T04:43:27.099Z,99.99
2019-01-10T04:44:36.547Z,99.99
2019-01-10T04:45:46.245Z,99.99
2019-01-10T04:46:56.182Z,99.99
2019-01-10T04:48:05.617Z,99.99
2019-01-10T04:49:15.046Z,99.99
2019-01-10T04:50:24.978Z,99.99
2019-01-10T04:51:34.684Z,99.99
2019-01-10T04:52:44.847Z,99.99
2019-01-10T04:53:54.781Z,99.99
2019-01-10T04:55:04.728Z,99.99
2019-01-10T04:56:14.665Z,99.99
2019-01-10T04:57:24.343Z,99.99
2019-01-10T04:58:34.297Z,99.99
2019-01-10T04:59:43.995Z,99.99
2019-01-10T05:00:53.950Z,99.99
2019-01-10T05:02:03.641Z,99.99
2019-01-10T05:03:23.437Z,99.99
2019-01-10T05:04:33.380Z,99.99
2019-01-10T05:05:43.303Z,99.99
2019-01-10T05:06:52.743Z,99.99
2019-01-10T05:08:02.678Z,99.99
2019-01-10T05:09:12.379Z,99.99
2019-01-10T05:10:22.085Z,99.99
2019-01-10T05:11:31.785Z,99.99
2019-01-10T05:12:44.187Z,99.99
2019-01-10T05:13:54.144Z,99.99
2019-01-10T05:15:03.851Z,99.99
2019-01-10T05:16:13.545Z,99.99
2019-01-10T05:17:23.502Z,99.99
2019-01-10T05:18:35.681Z,99.99
2019-01-10T05:19:45.639Z,99.99
2019-01-10T05:20:55.581Z,99.99
2019-01-10T05:22:05.291Z,99.99
2019-01-10T05:23:15.008Z,99.99
2019-01-10T05:24:25.077Z,99.99
2019-01-10T05:25:35.027Z,99.99
2019-01-10T05:26:44.970Z,99.99
2019-01-10T05:27:54.911Z,99.99
2019-01-10T05:29:04.601Z,99.99
2019-01-10T05:30:14.547Z,99.99
2019-01-10T05:31:24.495Z,99.99
2019-01-10T05:32:34.426Z,99.99
2019-01-10T05:33:44.144Z,99.99
2019-01-10T05:34:53.838Z,99.99
2019-01-10T05:36:03.787Z,99.99
2019-01-10T05:37:13.730Z,99.99
2019-01-10T05:38:23.654Z,99.99
2019-01-10T05:39:33.592Z,99.99
2019-01-10T05:40:52.657Z,99.99
2019-01-10T05:42:03.254Z,99.99
2019-01-10T05:43:12.967Z,99.99
2019-01-10T05:44:29.119Z,99.99
2019-01-10T05:45:39.087Z,99.99
2019-01-10T05:46:51.279Z,99.99
2019-01-10T05:48:00.970Z,99.99
2019-01-10T05:49:10.917Z,99.99
2019-01-10T05:50:20.626Z,99.99
2019-01-10T05:51:30.589Z,99.99
2019-01-10T05:52:40.543Z,99.99
2019-01-10T05:53:50.488Z,99.99
2019-01-10T05:55:00.435Z,99.99
2019-01-10T05:56:18.120Z,99.99
2019-01-10T05:57:28.067Z,99.99
2019-01-10T05:58:37.764Z,99.99
2019-01-10T05:59:49.515Z,99.99
2019-01-10T06:00:59.458Z,99.99
2019-01-10T06:02:09.395Z,99.99
2019-01-10T06:03:19.349Z,99.99
2019-01-10T06:04:29.289Z,99.99
2019-01-10T06:05:38.985Z,99.99
2019-01-10T06:06:48.932Z,99.99
2019-01-10T06:07:58.620Z,99.99
2019-01-10T06:09:08.578Z,99.99
2019-01-10T06:10:18.510Z,99.99
2019-01-10T06:11:28.457Z,99.99
2019-01-10T06:12:38.394Z,99.99
2019-01-10T06:13:48.345Z,99.99
2019-01-10T06:14:57.799Z,99.99
2019-01-10T06:16:07.611Z,99.99
2019-01-10T06:17:17.554Z,99.99
2019-01-10T06:18:27.499Z,99.99
2019-01-10T06:19:36.945Z,99.99
2019-01-10T06:20:46.637Z,99.99
2019-01-10T06:21:56.602Z,99.99
2019-01-10T06:23:06.630Z,99.99
2019-01-10T06:24:16.556Z,99.99
2019-01-10T06:25:26.519Z,99.99
2019-01-10T06:26:36.224Z,99.99
2019-01-10T06:27:45.888Z,99.99
2019-01-10T06:28:55.336Z,99.99
2019-01-10T06:30:05.293Z,99.99
2019-01-10T06:31:15.235Z,99.99
2019-01-10T06:32:24.668Z,99.99
2019-01-10T06:33:34.388Z,99.99
2019-01-10T06:34:44.327Z,99.99
2019-01-10T06:35:54.045Z,99.99
2019-01-10T06:37:03.537Z,99.99
2019-01-10T06:38:13.228Z,99.99
2019-01-10T06:39:23.190Z,99.99
2019-01-10T06:40:33.128Z,99.99
2019-01-10T06:41:42.582Z,99.99
2019-01-10T06:42:52.414Z,99.99
2019-01-10T06:44:02.354Z,99.99
2019-01-10T06:45:12.352Z,99.99
2019-01-10T06:46:22.040Z,99.99
2019-01-10T06:47:34.108Z,99.99
2019-01-10T06:48:43.796Z,99.99
2019-01-10T06:49:53.498Z,99.99
2019-01-10T06:51:03.441Z,99.99
2019-01-10T06:52:13.144Z,99.99
2019-01-10T06:53:23.168Z,99.99
2019-01-10T06:54:32.865Z,99.99
2019-01-10T06:55:45.018Z,99.99
2019-01-10T06:56:54.721Z,99.99
2019-01-10T06:58:04.676Z,99.99
2019-01-10T06:59:14.119Z,99.99
2019-01-10T07:00:23.850Z,99.99
2019-01-10T07:01:33.553Z,99.99
2019-01-10T07:02:43.598Z,99.99
2019-01-10T07:03:53.531Z,99.99
2019-01-10T07:05:03.414Z,99.99
2019-01-10T07:06:13.852Z,99.99
2019-01-10T07:07:23.554Z,99.99
2019-01-10T07:08:34.948Z,99.99
2019-01-10T07:09:45.047Z,99.99
2019-01-10T07:10:54.742Z,99.99
2019-01-10T07:12:04.438Z,99.99
2019-01-10T07:13:15.262Z,99.99
2019-01-10T07:14:25.462Z,99.99
2019-01-10T07:15:35.152Z,99.99
2019-01-10T07:16:55.930Z,99.99
2019-01-10T07:18:05.922Z,99.99
2019-01-10T07:19:15.616Z,99.99
2019-01-10T07:20:25.585Z,99.99
2019-01-10T07:21:35.588Z,99.99
2019-01-10T07:22:45.554Z,99.99
2019-01-10T07:23:55.972Z,99.99
2019-01-10T07:25:06.089Z,99.99
2019-01-10T07:26:16.072Z,99.99
2019-01-10T07:27:25.810Z,99.99
2019-01-10T07:28:35.518Z,99.99
2019-01-10T07:29:45.474Z,99.99
2019-01-10T07:30:54.928Z,99.99
2019-01-10T07:32:04.899Z,99.99
2019-01-10T07:33:14.856Z,99.99
2019-01-10T07:34:24.580Z,99.99
2019-01-10T07:35:34.564Z,99.99
2019-01-10T07:36:44.050Z,99.99
2019-01-10T07:37:54.048Z,99.99
2019-01-10T07:39:03.748Z,99.99
2019-01-10T07:40:13.442Z,99.99
2019-01-10T07:41:23.167Z,99.99
2019-01-10T07:42:32.942Z,99.99
2019-01-10T07:43:42.758Z,99.99
2019-01-10T07:44:52.724Z,99.99
2019-01-10T07:46:10.146Z,99.99
2019-01-10T07:47:20.105Z,99.99
2019-01-10T07:48:29.552Z,99.99
2019-01-10T07:49:39.244Z,99.99
2019-01-10T07:50:49.200Z,99.99
2019-01-10T07:51:59.172Z,99.99
2019-01-10T07:53:09.155Z,99.99
2019-01-10T07:54:19.145Z,99.99
2019-01-10T07:55:28.841Z,99.99
2019-01-10T07:56:39.024Z,99.99
2019-01-10T07:57:48.957Z,99.99
2019-01-10T07:58:58.917Z,99.99
2019-01-10T08:00:08.708Z,99.99
2019-01-10T08:01:18.426Z,99.99
2019-01-10T08:02:28.405Z,99.99
2019-01-10T08:03:38.364Z,99.99
2019-01-10T08:04:48.334Z,99.99
2019-01-10T08:05:58.281Z,99.99
2019-01-10T08:07:09.888Z,99.99
2019-01-10T08:08:19.832Z,99.99
2019-01-10T08:09:29.777Z,99.99
2019-01-10T08:10:39.216Z,99.99
2019-01-10T08:11:49.171Z,99.99
2019-01-10T08:13:08.000Z,99.99
2019-01-10T08:14:17.710Z,99.99
2019-01-10T08:15:27.402Z,99.99
2019-01-10T08:16:37.886Z,99.99
2019-01-10T08:17:47.855Z,99.99
2019-01-10T08:18:57.838Z,99.99
2019-01-10T08:20:07.577Z,99.99
2019-01-10T08:21:18.127Z,99.99
2019-01-10T08:22:30.592Z,99.99
2019-01-10T08:23:40.034Z,99.99
2019-01-10T08:24:49.734Z,99.99
2019-01-10T08:25:59.438Z,99.99
2019-01-10T08:27:09.406Z,99.99
2019-01-10T08:28:19.352Z,99.99
2019-01-10T08:29:28.813Z,99.99
2019-01-10T08:30:38.643Z,99.99
2019-01-10T08:31:48.350Z,99.99
2019-01-10T08:32:57.781Z,99.99
2019-01-10T08:34:07.812Z,99.99
2019-01-10T08:35:17.751Z,99.99
2019-01-10T08:36:34.997Z,99.99
2019-01-10T08:37:44.684Z,99.99
2019-01-10T08:38:54.639Z,99.99
2019-01-10T08:40:04.333Z,99.99
2019-01-10T08:41:16.356Z,99.99
2019-01-10T08:42:25.807Z,99.99
2019-01-10T08:43:35.485Z,99.99
2019-01-10T08:44:44.933Z,99.99
2019-01-10T08:45:54.746Z,99.99
2019-01-10T08:47:04.713Z,99.99
2019-01-10T08:48:14.906Z,99.99
2019-01-10T08:49:24.975Z,99.99
2019-01-10T08:50:34.928Z,99.99
2019-01-10T08:51:44.635Z,99.99
2019-01-10T08:52:54.602Z,99.99
2019-01-10T08:54:04.567Z,99.99
2019-01-10T08:55:14.514Z,99.99
2019-01-10T08:56:24.203Z,99.99
2019-01-10T08:57:34.153Z,99.99
2019-01-10T08:58:43.864Z,99.99
2019-01-10T08:59:53.817Z,99.99
2019-01-10T09:01:03.771Z,99.99
2019-01-10T09:02:13.730Z,99.99
2019-01-10T09:03:23.683Z,99.99
2019-01-10T09:04:33.613Z,99.99
2019-01-10T09:05:43.351Z,99.99
2019-01-10T09:06:53.309Z,99.99
2019-01-10T09:08:03.240Z,99.99
2019-01-10T09:09:13.179Z,99.99
2019-01-10T09:10:22.115Z,99.99
2019-01-10T09:11:31.804Z,99.99
2019-01-10T09:12:41.756Z,99.99
2019-01-10T09:13:51.690Z,99.99
2019-01-10T09:15:01.638Z,99.99
2019-01-10T09:16:11.329Z,99.99
2019-01-10T09:17:21.299Z,99.99
2019-01-10T09:18:31.114Z,99.99
2019-01-10T09:19:40.821Z,99.99
2019-01-10T09:20:50.520Z,99.99
2019-01-10T09:22:09.453Z,99.99
2019-01-10T09:23:19.417Z,99.99
2019-01-10T09:24:29.367Z,99.99
2019-01-10T09:25:39.063Z,99.99
2019-01-10T09:26:48.764Z,99.99
2019-01-10T09:27:58.736Z,99.99
2019-01-10T09:29:08.448Z,99.99
2019-01-10T09:30:18.397Z,99.99
2019-01-10T09:31:28.372Z,99.99
2019-01-10T09:32:38.317Z,99.99
2019-01-10T09:33:48.342Z,99.99
2019-01-10T09:34:58.043Z,99.99
2019-01-10T09:36:07.748Z,99.99
2019-01-10T09:37:17.199Z,99.99
2019-01-10T09:38:26.890Z,99.99
2019-01-10T09:39:36.865Z,99.99
2019-01-10T09:40:46.819Z,99.99
2019-01-10T09:41:56.763Z,99.99
2019-01-10T09:43:06.770Z,99.99
2019-01-10T09:44:16.469Z,99.99
2019-01-10T09:45:25.492Z,99.99
2019-01-10T09:46:35.443Z,99.99
2019-01-10T09:47:45.133Z,99.99
2019-01-10T09:48:55.077Z,99.99
2019-01-10T09:50:04.791Z,99.99
2019-01-10T09:51:14.745Z,99.99
2019-01-10T09:52:24.458Z,99.99
2019-01-10T09:53:34.429Z,99.99
2019-01-10T09:54:44.436Z,99.99
2019-01-10T09:55:54.410Z,99.99
2019-01-10T09:57:04.359Z,99.99
2019-01-10T09:58:14.552Z,99.99
2019-01-10T09:59:24.124Z,99.99
2019-01-10T10:00:33.815Z,99.99
2019-01-10T10:01:43.765Z,99.99
2019-01-10T10:02:53.709Z,99.99
2019-01-10T10:04:03.276Z,99.99
2019-01-10T10:05:13.244Z,99.99
2019-01-10T10:06:22.692Z,99.99
2019-01-10T10:07:32.671Z,99.99
2019-01-10T10:08:42.653Z,99.99
2019-01-10T10:09:52.611Z,99.99
2019-01-10T10:11:02.663Z,99.99
2019-01-10T10:12:12.381Z,99.99
2019-01-10T10:13:22.337Z,99.99
2019-01-10T10:14:32.283Z,99.99
2019-01-10T10:15:42.126Z,99.99
2019-01-10T10:17:00.202Z,99.99
2019-01-10T10:18:10.229Z,99.99
2019-01-10T10:19:20.465Z,99.99
2019-01-10T10:20:30.187Z,99.99
2019-01-10T10:21:40.206Z,99.99
2019-01-10T10:22:49.909Z,99.99
2019-01-10T10:23:59.629Z,99.99
2019-01-10T10:25:09.331Z,99.99
2019-01-10T10:26:19.274Z,99.99
2019-01-10T10:27:28.966Z,99.99
2019-01-10T10:28:38.955Z,99.99
2019-01-10T10:29:48.907Z,99.99
2019-01-10T10:30:58.858Z,99.99
2019-01-10T10:32:08.827Z,99.99
2019-01-10T10:33:18.542Z,99.99
2019-01-10T10:34:28.266Z,99.99
2019-01-10T10:35:38.219Z,99.99
2019-01-10T10:36:48.522Z,99.99
2019-01-10T10:37:58.485Z,99.99
2019-01-10T10:39:08.439Z,99.99
2019-01-10T10:40:17.893Z,99.99
2019-01-10T10:41:27.699Z,99.99
2019-01-10T10:42:37.731Z,99.99
2019-01-10T10:43:47.682Z,99.99
2019-01-10T10:44:57.156Z,99.99
2019-01-10T10:46:07.104Z,99.99
2019-01-10T10:47:16.827Z,99.99
2019-01-10T10:48:26.379Z,99.99
2019-01-10T10:49:36.072Z,99.99
2019-01-10T10:50:46.056Z,99.99
2019-01-10T10:51:56.013Z,99.99
2019-01-10T10:53:05.975Z,99.99
2019-01-10T10:54:15.434Z,99.99
2019-01-10T10:55:25.161Z,99.99
2019-01-10T10:56:35.346Z,99.99
2019-01-10T10:57:45.047Z,99.99
2019-01-10T10:58:55.036Z,99.99
2019-01-10T11:00:04.770Z,99.99
2019-01-10T11:01:14.732Z,98.54
2019-01-10T11:02:24.700Z,99.43
2019-01-10T11:03:34.686Z,98.39
2019-01-10T11:04:46.319Z,99.05
2019-01-10T11:05:56.269Z,99.86
2019-01-10T11:07:05.979Z,98.63
2019-01-10T11:08:15.937Z,97.49
2019-01-10T11:09:25.897Z,97.07
2019-01-10T11:10:35.619Z,94.23
2019-01-10T11:11:45.074Z,93.65
2019-01-10T11:12:55.059Z,94.84
2019-01-10T11:14:05.031Z,93.84
2019-01-10T11:15:14.983Z,93.56
2019-01-10T11:16:24.934Z,93.27
2019-01-10T11:17:34.886Z,92.52
2019-01-10T11:18:44.887Z,92.99
2019-01-10T11:19:54.876Z,91.85
2019-01-10T11:21:04.832Z,92.52
2019-01-10T11:22:14.537Z,92.33
2019-01-10T11:23:23.989Z,92.9
2019-01-10T11:24:33.459Z,91.9
2019-01-10T11:25:42.909Z,88.29
2019-01-10T11:26:53.493Z,87.01
2019-01-10T11:28:03.518Z,85.97
2019-01-10T11:29:13.479Z,84.36
2019-01-10T11:30:23.204Z,84.45
2019-01-10T11:31:33.159Z,84.01
2019-01-10T11:32:43.113Z,81.65
2019-01-10T11:33:52.561Z,82.03
2019-01-10T11:35:02.581Z,83.4
2019-01-10T11:36:12.541Z,84.17
2019-01-10T11:37:22.513Z,85.45
2019-01-10T11:38:32.475Z,86.3
2019-01-10T11:39:42.429Z,86.49
2019-01-10T11:40:52.121Z,87.97
2019-01-10T11:42:01.824Z,88.25
2019-01-10T11:43:11.522Z,87.97
2019-01-10T11:44:21.468Z,90.05
2019-01-10T11:45:31.669Z,90.62
2019-01-10T11:46:41.622Z,90.62
2019-01-10T11:47:51.069Z,90.53
2019-01-10T11:49:00.783Z,88.68
2019-01-10T11:50:10.495Z,88.87
2019-01-10T11:51:20.194Z,87.54
2019-01-10T11:52:29.886Z,85.11
2019-01-10T11:53:39.843Z,83.59
2019-01-10T11:54:49.980Z,82.59
2019-01-10T11:55:59.792Z,81.88
2019-01-10T11:57:09.747Z,82.74
2019-01-10T11:58:19.449Z,84.12
2019-01-10T11:59:29.157Z,84.5
2019-01-10T12:00:39.108Z,87.21
2019-01-10T12:01:49.073Z,88.11
2019-01-10T12:02:58.787Z,90.01
2019-01-10T12:04:08.753Z,90.1
2019-01-10T12:05:18.717Z,90.86
2019-01-10T12:06:28.185Z,91.86
2019-01-10T12:07:37.894Z,92.52
2019-01-10T12:08:47.603Z,93.08
2019-01-10T12:09:57.658Z,93.75
2019-01-10T12:11:07.374Z,93.46
2019-01-10T12:12:17.337Z,93.94
2019-01-10T12:13:27.039Z,93.27
2019-01-10T12:14:36.786Z,91.9
2019-01-10T12:15:46.483Z,90.48
2019-01-10T12:16:56.467Z,88.49
2019-01-10T12:18:06.418Z,86.64
2019-01-10T12:19:16.397Z,87.73
2019-01-10T12:20:26.102Z,87.45
2019-01-10T12:21:36.005Z,87.54
2019-01-10T12:22:45.694Z,87.92
2019-01-10T12:23:55.642Z,87.45
2019-01-10T12:25:05.599Z,87.83
2019-01-10T12:26:15.038Z,87.92
2019-01-10T12:27:24.750Z,87.83
2019-01-10T12:28:34.447Z,88.68
2019-01-10T12:29:44.162Z,88.49
2019-01-10T12:30:53.872Z,88.73
2019-01-10T12:32:03.817Z,89.2
2019-01-10T12:33:13.281Z,90.15
2019-01-10T12:34:23.041Z,91.38
2019-01-10T12:35:32.503Z,91.48
2019-01-10T12:36:42.210Z,92.05
2019-01-10T12:37:51.664Z,91.95
2019-01-10T12:39:03.463Z,92.05
2019-01-10T12:40:13.603Z,91
2019-01-10T12:41:23.572Z,91.86
2019-01-10T12:42:33.318Z,92.24
2019-01-10T12:43:43.085Z,92.43
2019-01-10T12:44:53.099Z,92.24
2019-01-10T12:46:03.142Z,91.29
2019-01-10T12:47:13.780Z,92.43
2019-01-10T12:48:23.798Z,92.33
2019-01-10T12:49:33.751Z,92.9
2019-01-10T12:50:43.719Z,93.37
2019-01-10T12:51:53.416Z,93.65
2019-01-10T12:53:03.376Z,94.13
2019-01-10T12:54:13.314Z,94.51
2019-01-10T12:55:24.947Z,94.65
2019-01-10T12:56:34.971Z,93.56
2019-01-10T12:57:44.677Z,93.99
2019-01-10T12:58:54.626Z,94.27
2019-01-10T13:00:04.343Z,93.13
2019-01-10T13:01:14.371Z,93.51
2019-01-10T13:02:24.362Z,93.23
2019-01-10T13:03:34.325Z,92.66
2019-01-10T13:04:44.038Z,93.51
2019-01-10T13:05:53.987Z,93.42
2019-01-10T13:07:04.012Z,93.32
2019-01-10T13:08:13.230Z,93.42
2019-01-10T13:09:23.198Z,93.89
2019-01-10T13:10:32.917Z,93.51
2019-01-10T13:11:42.695Z,93.13
2019-01-10T13:12:52.654Z,92.66
2019-01-10T13:14:05.357Z,92.85
2019-01-10T13:15:16.571Z,91.24
2019-01-10T13:16:26.337Z,91.91
2019-01-10T13:17:36.076Z,92.19
2019-01-10T13:18:46.160Z,93.51
2019-01-10T13:19:55.872Z,93.04
2019-01-10T13:21:05.606Z,92.38
2019-01-10T13:22:17.377Z,92.47
2019-01-10T13:23:27.400Z,92
2019-01-10T13:24:37.554Z,92.19
2019-01-10T13:25:49.446Z,92.1
2019-01-10T13:27:07.347Z,91.91
2019-01-10T13:28:17.332Z,92.66
2019-01-10T13:29:27.031Z,92.29
2019-01-10T13:30:36.863Z,92.47
2019-01-10T13:31:48.771Z,92.94
2019-01-10T13:32:58.230Z,93.04
2019-01-10T13:34:08.196Z,92.38
2019-01-10T13:35:18.152Z,92.47
2019-01-10T13:36:28.276Z,92.1
2019-01-10T13:37:37.973Z,92.94
2019-01-10T13:38:47.928Z,92.94
2019-01-10T13:39:57.618Z,92.47
2019-01-10T13:41:07.314Z,92.47
2019-01-10T13:42:18.071Z,91.72
2019-01-10T13:43:27.779Z,92.19
2019-01-10T13:44:37.731Z,92.66
2019-01-10T13:45:48.584Z,92.85
2019-01-10T13:47:00.475Z,93.04
2019-01-10T13:48:10.427Z,92.94
2019-01-10T13:49:20.127Z,93.61
2019-01-10T13:50:29.820Z,92.94
2019-01-10T13:51:39.528Z,92.85
2019-01-10T13:52:49.252Z,92.85
2019-01-10T13:53:59.203Z,92.57
2019-01-10T13:55:09.387Z,91.34
2019-01-10T13:56:19.131Z,92.1
2019-01-10T13:57:30.623Z,92.29
2019-01-10T13:58:40.577Z,92.66
2019-01-10T13:59:50.276Z,92.29
2019-01-10T14:01:00.236Z,92.47
2019-01-10T14:02:10.217Z,91.62
2019-01-10T14:03:19.910Z,91.34
2019-01-10T14:04:30.243Z,91.24
2019-01-10T14:05:40.199Z,91.53
2019-01-10T14:06:49.915Z,91.24
2019-01-10T14:07:59.885Z,91.15
2019-01-10T14:09:09.842Z,91.24
2019-01-10T14:10:19.794Z,91.34
2019-01-10T14:11:29.762Z,91.53
2019-01-10T14:12:40.181Z,91.62
2019-01-10T14:13:49.872Z,91.34
2019-01-10T14:14:59.850Z,91.43
2019-01-10T14:16:09.821Z,91.15
2019-01-10T14:17:19.782Z,91.53
2019-01-10T14:18:29.778Z,91.43
2019-01-10T14:19:39.490Z,92.19
2019-01-10T14:20:49.458Z,92.38
2019-01-10T14:21:59.154Z,92
2019-01-10T14:23:09.085Z,91.81
2019-01-10T14:24:18.799Z,92.57
2019-01-10T14:25:28.750Z,92.19
2019-01-10T14:26:38.688Z,91.91
2019-01-10T14:27:48.136Z,91.91
2019-01-10T14:29:04.898Z,92.57
2019-01-10T14:30:14.866Z,92.57
2019-01-10T14:31:24.571Z,92.47
2019-01-10T14:32:34.266Z,91.72
2019-01-10T14:33:44.253Z,91.24
2019-01-10T14:34:54.200Z,91.24
2019-01-10T14:36:03.878Z,91.15
2019-01-10T14:37:13.831Z,90.67
2019-01-10T14:38:23.795Z,90.58
2019-01-10T14:39:33.756Z,89.63
2019-01-10T14:40:43.720Z,89.44
2019-01-10T14:41:53.174Z,88.93
2019-01-10T14:43:03.122Z,88.83
2019-01-10T14:44:12.850Z,89.02
2019-01-10T14:45:22.828Z,89.16
2019-01-10T14:46:32.791Z,87.7
2019-01-10T14:47:42.749Z,88.07
2019-01-10T14:48:52.718Z,88.26
2019-01-10T14:50:02.438Z,87.88
2019-01-10T14:51:12.150Z,88.17
2019-01-10T14:52:22.114Z,88.26
2019-01-10T14:53:32.902Z,88.74
2019-01-10T14:54:42.424Z,88.26
2019-01-10T14:55:52.078Z,88.83
2019-01-10T14:57:02.058Z,89.59
2019-01-10T14:58:11.772Z,89.69
2019-01-10T14:59:21.732Z,90.25
2019-01-10T15:00:31.709Z,89.78
2019-01-10T15:01:41.671Z,89.4
2019-01-10T15:02:51.391Z,90.06